sensor_id;sensor_type;location;lat;lon;timestamp;P1;durP1;ratioP1;P2;durP2;ratioP2
15915;SDS011;8057;47.830;-3.870;2022-07-24T00:01:48;1.70;;;1.60;;
15915;SDS011;8057;47.830;-3.870;2022-07-24T00:05:57;1.73;;;1.63;;
15915;SDS011;8057;47.830;-3.870;2022-07-24T00:10:07;2.23;;;1.80;;
15915;SDS011;8057;47.830;-3.870;2022-07-24T00:14:17;2.50;;;1.80;;
15915;SDS011;8057;47.830;-3.870;2022-07-24T00:18:27;2.40;;;1.73;;
15915;SDS011;8057;47.830;-3.870;2022-07-24T00:22:37;1.93;;;1.83;;
15915;SDS011;8057;47.830;-3.870;2022-07-24T00:26:46;1.70;;;1.60;;
15915;SDS011;8057;47.830;-3.870;2022-07-24T00:30:57;2.20;;;2.00;;
15915;SDS011;8057;47.830;-3.870;2022-07-24T00:35:07;1.73;;;1.63;;
15915;SDS011;8057;47.830;-3.870;2022-07-24T00:39:19;2.67;;;2.47;;
15915;SDS011;8057;47.830;-3.870;2022-07-24T00:43:29;3.10;;;2.00;;
15915;SDS011;8057;47.830;-3.870;2022-07-24T00:47:38;2.00;;;1.90;;
15915;SDS011;8057;47.830;-3.870;2022-07-24T00:51:49;2.20;;;1.80;;
15915;SDS011;8057;47.830;-3.870;2022-07-24T00:55:59;2.87;;;1.90;;
15915;SDS011;8057;47.830;-3.870;2022-07-24T01:00:08;2.73;;;1.93;;
15915;SDS011;8057;47.830;-3.870;2022-07-24T01:04:18;2.10;;;2.00;;
15915;SDS011;8057;47.830;-3.870;2022-07-24T01:08:28;1.97;;;1.87;;
15915;SDS011;8057;47.830;-3.870;2022-07-24T01:12:38;1.97;;;1.87;;
15915;SDS011;8057;47.830;-3.870;2022-07-24T01:16:47;2.00;;;1.90;;
15915;SDS011;8057;47.830;-3.870;2022-07-24T01:20:58;2.07;;;1.97;;
15915;SDS011;8057;47.830;-3.870;2022-07-24T01:25:07;2.23;;;2.03;;
15915;SDS011;8057;47.830;-3.870;2022-07-24T01:29:17;3.37;;;2.30;;
15915;SDS011;8057;47.830;-3.870;2022-07-24T01:33:26;2.43;;;2.30;;
15915;SDS011;8057;47.830;-3.870;2022-07-24T01:37:37;2.27;;;2.07;;
15915;SDS011;8057;47.830;-3.870;2022-07-24T01:41:46;2.03;;;1.83;;
15915;SDS011;8057;47.830;-3.870;2022-07-24T01:45:55;2.30;;;2.20;;
15915;SDS011;8057;47.830;-3.870;2022-07-24T01:50:04;2.50;;;2.30;;
15915;SDS011;8057;47.830;-3.870;2022-07-24T01:54:15;2.10;;;2.00;;
15915;SDS011;8057;47.830;-3.870;2022-07-24T01:58:24;2.70;;;2.50;;
15915;SDS011;8057;47.830;-3.870;2022-07-24T02:02:32;2.40;;;2.20;;
15915;SDS011;8057;47.830;-3.870;2022-07-24T02:06:41;2.30;;;2.20;;
15915;SDS011;8057;47.830;-3.870;2022-07-24T02:10:52;2.20;;;2.10;;
15915;SDS011;8057;47.830;-3.870;2022-07-24T02:15:01;2.43;;;2.20;;
15915;SDS011;8057;47.830;-3.870;2022-07-24T02:19:09;2.30;;;2.10;;
15915;SDS011;8057;47.830;-3.870;2022-07-24T02:23:18;2.57;;;2.20;;
15915;SDS011;8057;47.830;-3.870;2022-07-24T02:27:28;2.20;;;2.10;;
15915;SDS011;8057;47.830;-3.870;2022-07-24T02:31:37;2.50;;;2.40;;
15915;SDS011;8057;47.830;-3.870;2022-07-24T02:35:46;2.50;;;2.30;;
15915;SDS011;8057;47.830;-3.870;2022-07-24T02:39:55;2.63;;;2.43;;
15915;SDS011;8057;47.830;-3.870;2022-07-24T02:44:05;2.60;;;2.40;;
15915;SDS011;8057;47.830;-3.870;2022-07-24T02:48:14;3.07;;;2.87;;
15915;SDS011;8057;47.830;-3.870;2022-07-24T02:52:23;2.27;;;2.17;;
15915;SDS011;8057;47.830;-3.870;2022-07-24T02:56:32;2.20;;;2.10;;
15915;SDS011;8057;47.830;-3.870;2022-07-24T03:00:42;2.13;;;2.03;;
15915;SDS011;8057;47.830;-3.870;2022-07-24T03:04:51;2.60;;;2.50;;
15915;SDS011;8057;47.830;-3.870;2022-07-24T03:09:00;2.10;;;2.00;;
15915;SDS011;8057;47.830;-3.870;2022-07-24T03:13:10;2.10;;;2.00;;
15915;SDS011;8057;47.830;-3.870;2022-07-24T03:17:21;2.07;;;1.97;;
15915;SDS011;8057;47.830;-3.870;2022-07-24T03:21:29;2.30;;;2.20;;
15915;SDS011;8057;47.830;-3.870;2022-07-24T03:25:53;2.60;;;2.40;;
15915;SDS011;8057;47.830;-3.870;2022-07-24T03:30:03;2.60;;;2.40;;
15915;SDS011;8057;47.830;-3.870;2022-07-24T03:34:14;2.70;;;2.50;;
15915;SDS011;8057;47.830;-3.870;2022-07-24T03:38:23;3.00;;;2.80;;
15915;SDS011;8057;47.830;-3.870;2022-07-24T03:42:32;3.17;;;2.87;;
15915;SDS011;8057;47.830;-3.870;2022-07-24T03:46:41;3.60;;;3.30;;
15915;SDS011;8057;47.830;-3.870;2022-07-24T03:50:51;3.40;;;3.10;;
15915;SDS011;8057;47.830;-3.870;2022-07-24T03:55:00;2.70;;;2.50;;
15915;SDS011;8057;47.830;-3.870;2022-07-24T03:59:09;3.53;;;3.33;;
15915;SDS011;8057;47.830;-3.870;2022-07-24T04:03:18;2.87;;;2.67;;
15915;SDS011;8057;47.830;-3.870;2022-07-24T04:07:28;3.20;;;3.00;;
15915;SDS011;8057;47.830;-3.870;2022-07-24T04:11:37;2.67;;;2.47;;
15915;SDS011;8057;47.830;-3.870;2022-07-24T04:15:46;3.30;;;3.00;;
15915;SDS011;8057;47.830;-3.870;2022-07-24T04:19:55;2.70;;;2.60;;
15915;SDS011;8057;47.830;-3.870;2022-07-24T04:24:05;3.37;;;3.07;;
15915;SDS011;8057;47.830;-3.870;2022-07-24T04:28:14;2.97;;;2.80;;
15915;SDS011;8057;47.830;-3.870;2022-07-24T04:32:24;3.33;;;3.13;;
15915;SDS011;8057;47.830;-3.870;2022-07-24T04:36:33;3.07;;;2.87;;
15915;SDS011;8057;47.830;-3.870;2022-07-24T04:40:43;2.77;;;2.67;;
15915;SDS011;8057;47.830;-3.870;2022-07-24T04:44:52;3.97;;;3.73;;
15915;SDS011;8057;47.830;-3.870;2022-07-24T04:49:01;4.40;;;4.00;;
15915;SDS011;8057;47.830;-3.870;2022-07-24T04:53:10;3.63;;;3.43;;
15915;SDS011;8057;47.830;-3.870;2022-07-24T04:57:20;3.37;;;3.17;;
15915;SDS011;8057;47.830;-3.870;2022-07-24T05:01:29;4.10;;;3.73;;
15915;SDS011;8057;47.830;-3.870;2022-07-24T05:05:38;4.40;;;4.10;;
15915;SDS011;8057;47.830;-3.870;2022-07-24T05:09:47;4.37;;;4.03;;
15915;SDS011;8057;47.830;-3.870;2022-07-24T05:13:57;4.90;;;4.50;;
15915;SDS011;8057;47.830;-3.870;2022-07-24T05:18:06;3.30;;;3.10;;
15915;SDS011;8057;47.830;-3.870;2022-07-24T05:22:15;4.13;;;3.33;;
15915;SDS011;8057;47.830;-3.870;2022-07-24T05:26:24;3.40;;;3.10;;
15915;SDS011;8057;47.830;-3.870;2022-07-24T05:30:35;3.67;;;3.27;;
15915;SDS011;8057;47.830;-3.870;2022-07-24T05:34:43;3.50;;;3.30;;
15915;SDS011;8057;47.830;-3.870;2022-07-24T05:38:52;4.27;;;3.93;;
15915;SDS011;8057;47.830;-3.870;2022-07-24T05:43:01;4.10;;;3.80;;
15915;SDS011;8057;47.830;-3.870;2022-07-24T05:47:12;3.53;;;3.33;;
15915;SDS011;8057;47.830;-3.870;2022-07-24T05:51:20;4.43;;;4.03;;
15915;SDS011;8057;47.830;-3.870;2022-07-24T05:55:29;3.97;;;3.77;;
15915;SDS011;8057;47.830;-3.870;2022-07-24T05:59:38;3.10;;;2.90;;
15915;SDS011;8057;47.830;-3.870;2022-07-24T06:03:48;4.03;;;3.60;;
15915;SDS011;8057;47.830;-3.870;2022-07-24T06:07:57;3.30;;;3.10;;
15915;SDS011;8057;47.830;-3.870;2022-07-24T06:12:06;4.53;;;3.97;;
15915;SDS011;8057;47.830;-3.870;2022-07-24T06:16:16;3.53;;;3.23;;
15915;SDS011;8057;47.830;-3.870;2022-07-24T06:20:26;3.60;;;3.40;;
15915;SDS011;8057;47.830;-3.870;2022-07-24T06:24:35;3.67;;;3.47;;
15915;SDS011;8057;47.830;-3.870;2022-07-24T06:28:44;3.60;;;3.40;;
15915;SDS011;8057;47.830;-3.870;2022-07-24T06:32:53;3.13;;;2.93;;
15915;SDS011;8057;47.830;-3.870;2022-07-24T06:37:05;3.43;;;3.17;;
15915;SDS011;8057;47.830;-3.870;2022-07-24T06:41:13;3.53;;;3.33;;
15915;SDS011;8057;47.830;-3.870;2022-07-24T06:45:23;4.10;;;3.67;;
15915;SDS011;8057;47.830;-3.870;2022-07-24T06:49:32;4.00;;;3.70;;
15915;SDS011;8057;47.830;-3.870;2022-07-24T06:53:42;3.90;;;3.60;;
15915;SDS011;8057;47.830;-3.870;2022-07-24T06:57:53;3.27;;;3.07;;
15915;SDS011;8057;47.830;-3.870;2022-07-24T07:02:02;3.00;;;2.80;;
15915;SDS011;8057;47.830;-3.870;2022-07-24T07:06:11;2.97;;;2.80;;
15915;SDS011;8057;47.830;-3.870;2022-07-24T07:10:21;2.93;;;2.70;;
15915;SDS011;8057;47.830;-3.870;2022-07-24T07:14:30;2.80;;;2.60;;
15915;SDS011;8057;47.830;-3.870;2022-07-24T07:18:39;2.83;;;2.63;;
15915;SDS011;8057;47.830;-3.870;2022-07-24T07:22:48;3.10;;;2.80;;
15915;SDS011;8057;47.830;-3.870;2022-07-24T07:26:59;2.83;;;2.40;;
15915;SDS011;8057;47.830;-3.870;2022-07-24T07:31:08;2.90;;;2.70;;
15915;SDS011;8057;47.830;-3.870;2022-07-24T07:35:17;2.73;;;2.53;;
15915;SDS011;8057;47.830;-3.870;2022-07-24T07:39:33;3.30;;;2.53;;
15915;SDS011;8057;47.830;-3.870;2022-07-24T07:43:43;2.60;;;2.40;;
15915;SDS011;8057;47.830;-3.870;2022-07-24T07:47:52;2.07;;;1.97;;
15915;SDS011;8057;47.830;-3.870;2022-07-24T07:52:01;2.40;;;2.20;;
15915;SDS011;8057;47.830;-3.870;2022-07-24T07:56:11;1.80;;;1.70;;
15915;SDS011;8057;47.830;-3.870;2022-07-24T08:00:21;2.13;;;1.93;;
15915;SDS011;8057;47.830;-3.870;2022-07-24T08:04:30;2.20;;;1.90;;
15915;SDS011;8057;47.830;-3.870;2022-07-24T08:08:39;1.83;;;1.50;;
15915;SDS011;8057;47.830;-3.870;2022-07-24T08:12:48;1.60;;;1.50;;
15915;SDS011;8057;47.830;-3.870;2022-07-24T08:16:58;2.00;;;1.87;;
15915;SDS011;8057;47.830;-3.870;2022-07-24T08:21:07;2.83;;;1.73;;
15915;SDS011;8057;47.830;-3.870;2022-07-24T08:25:15;1.83;;;1.67;;
15915;SDS011;8057;47.830;-3.870;2022-07-24T08:29:25;2.20;;;1.33;;
15915;SDS011;8057;47.830;-3.870;2022-07-24T08:33:36;1.50;;;1.40;;
15915;SDS011;8057;47.830;-3.870;2022-07-24T08:37:45;2.00;;;1.37;;
15915;SDS011;8057;47.830;-3.870;2022-07-24T08:41:54;1.50;;;1.40;;
15915;SDS011;8057;47.830;-3.870;2022-07-24T08:46:03;1.47;;;1.33;;
15915;SDS011;8057;47.830;-3.870;2022-07-24T08:50:17;1.57;;;1.47;;
15915;SDS011;8057;47.830;-3.870;2022-07-24T08:54:26;1.30;;;1.20;;
15915;SDS011;8057;47.830;-3.870;2022-07-24T08:58:36;1.53;;;1.43;;
15915;SDS011;8057;47.830;-3.870;2022-07-24T09:02:45;1.57;;;1.37;;
15915;SDS011;8057;47.830;-3.870;2022-07-24T09:06:57;1.13;;;1.03;;
15915;SDS011;8057;47.830;-3.870;2022-07-24T09:11:06;1.63;;;1.40;;
15915;SDS011;8057;47.830;-3.870;2022-07-24T09:15:17;1.33;;;1.10;;
15915;SDS011;8057;47.830;-3.870;2022-07-24T09:19:27;2.10;;;1.00;;
15915;SDS011;8057;47.830;-3.870;2022-07-24T09:23:38;1.50;;;1.40;;
15915;SDS011;8057;47.830;-3.870;2022-07-24T09:27:48;1.87;;;1.10;;
15915;SDS011;8057;47.830;-3.870;2022-07-24T09:31:59;1.53;;;0.90;;
15915;SDS011;8057;47.830;-3.870;2022-07-24T09:36:12;2.13;;;1.33;;
15915;SDS011;8057;47.830;-3.870;2022-07-24T09:40:27;1.27;;;1.10;;
15915;SDS011;8057;47.830;-3.870;2022-07-24T09:44:37;0.87;;;0.87;;
15915;SDS011;8057;47.830;-3.870;2022-07-24T09:48:51;1.47;;;1.30;;
15915;SDS011;8057;47.830;-3.870;2022-07-24T09:53:01;1.17;;;1.07;;
15915;SDS011;8057;47.830;-3.870;2022-07-24T09:57:20;1.60;;;0.93;;
15915;SDS011;8057;47.830;-3.870;2022-07-24T10:01:31;1.73;;;0.97;;
15915;SDS011;8057;47.830;-3.870;2022-07-24T10:05:40;0.97;;;0.90;;
15915;SDS011;8057;47.830;-3.870;2022-07-24T10:09:56;1.10;;;1.00;;
15915;SDS011;8057;47.830;-3.870;2022-07-24T10:14:08;1.53;;;1.00;;
15915;SDS011;8057;47.830;-3.870;2022-07-24T10:18:18;1.93;;;1.10;;
15915;SDS011;8057;47.830;-3.870;2022-07-24T10:22:38;1.50;;;1.10;;
15915;SDS011;8057;47.830;-3.870;2022-07-24T10:27:01;1.47;;;0.90;;
15915;SDS011;8057;47.830;-3.870;2022-07-24T10:31:13;1.40;;;1.00;;
15915;SDS011;8057;47.830;-3.870;2022-07-24T10:35:24;1.47;;;1.13;;
15915;SDS011;8057;47.830;-3.870;2022-07-24T10:39:42;1.70;;;1.03;;
15915;SDS011;8057;47.830;-3.870;2022-07-24T10:44:11;1.50;;;0.90;;
15915;SDS011;8057;47.830;-3.870;2022-07-24T10:48:26;1.27;;;0.70;;
15915;SDS011;8057;47.830;-3.870;2022-07-24T10:52:37;1.60;;;1.23;;
15915;SDS011;8057;47.830;-3.870;2022-07-24T10:56:47;1.73;;;1.10;;
15915;SDS011;8057;47.830;-3.870;2022-07-24T11:00:57;1.17;;;0.93;;
15915;SDS011;8057;47.830;-3.870;2022-07-24T11:05:30;1.53;;;1.13;;
15915;SDS011;8057;47.830;-3.870;2022-07-24T11:09:52;0.90;;;0.70;;
15915;SDS011;8057;47.830;-3.870;2022-07-24T11:14:03;2.67;;;0.90;;
15915;SDS011;8057;47.830;-3.870;2022-07-24T11:18:12;0.77;;;0.77;;
15915;SDS011;8057;47.830;-3.870;2022-07-24T11:22:29;1.40;;;1.30;;
15915;SDS011;8057;47.830;-3.870;2022-07-24T11:26:46;2.30;;;1.10;;
15915;SDS011;8057;47.830;-3.870;2022-07-24T11:30:55;1.70;;;0.97;;
15915;SDS011;8057;47.830;-3.870;2022-07-24T11:35:04;0.70;;;0.70;;
15915;SDS011;8057;47.830;-3.870;2022-07-24T11:39:16;1.53;;;0.97;;
15915;SDS011;8057;47.830;-3.870;2022-07-24T11:43:26;1.23;;;0.70;;
15915;SDS011;8057;47.830;-3.870;2022-07-24T11:47:35;0.80;;;0.80;;
15915;SDS011;8057;47.830;-3.870;2022-07-24T11:51:44;2.27;;;0.80;;
15915;SDS011;8057;47.830;-3.870;2022-07-24T11:56:03;0.73;;;0.73;;
15915;SDS011;8057;47.830;-3.870;2022-07-24T12:00:13;0.93;;;0.90;;
15915;SDS011;8057;47.830;-3.870;2022-07-24T12:04:24;1.40;;;0.83;;
15915;SDS011;8057;47.830;-3.870;2022-07-24T12:08:32;2.00;;;1.20;;
15915;SDS011;8057;47.830;-3.870;2022-07-24T12:12:43;0.87;;;0.60;;
15915;SDS011;8057;47.830;-3.870;2022-07-24T12:16:52;1.70;;;1.00;;
15915;SDS011;8057;47.830;-3.870;2022-07-24T12:21:03;0.80;;;0.80;;
15915;SDS011;8057;47.830;-3.870;2022-07-24T12:25:12;1.30;;;0.70;;
15915;SDS011;8057;47.830;-3.870;2022-07-24T12:29:24;1.03;;;0.90;;
15915;SDS011;8057;47.830;-3.870;2022-07-24T12:33:33;0.80;;;0.80;;
15915;SDS011;8057;47.830;-3.870;2022-07-24T12:37:42;1.20;;;1.10;;
15915;SDS011;8057;47.830;-3.870;2022-07-24T12:41:51;0.80;;;0.70;;
15915;SDS011;8057;47.830;-3.870;2022-07-24T12:46:08;1.73;;;0.80;;
15915;SDS011;8057;47.830;-3.870;2022-07-24T12:50:18;0.87;;;0.80;;
15915;SDS011;8057;47.830;-3.870;2022-07-24T12:54:47;2.60;;;1.30;;
15915;SDS011;8057;47.830;-3.870;2022-07-24T12:58:57;1.10;;;0.90;;
15915;SDS011;8057;47.830;-3.870;2022-07-24T13:03:13;0.80;;;0.80;;
15915;SDS011;8057;47.830;-3.870;2022-07-24T13:07:24;1.27;;;0.90;;
15915;SDS011;8057;47.830;-3.870;2022-07-24T13:11:34;1.87;;;0.80;;
15915;SDS011;8057;47.830;-3.870;2022-07-24T13:15:43;1.83;;;1.00;;
15915;SDS011;8057;47.830;-3.870;2022-07-24T13:19:53;1.43;;;1.10;;
15915;SDS011;8057;47.830;-3.870;2022-07-24T13:24:02;2.20;;;0.90;;
15915;SDS011;8057;47.830;-3.870;2022-07-24T13:28:12;1.27;;;0.73;;
15915;SDS011;8057;47.830;-3.870;2022-07-24T13:32:21;2.83;;;1.20;;
15915;SDS011;8057;47.830;-3.870;2022-07-24T13:36:31;1.00;;;0.90;;
15915;SDS011;8057;47.830;-3.870;2022-07-24T13:40:42;1.10;;;0.80;;
15915;SDS011;8057;47.830;-3.870;2022-07-24T13:44:51;1.27;;;0.83;;
15915;SDS011;8057;47.830;-3.870;2022-07-24T13:49:00;1.73;;;1.17;;
15915;SDS011;8057;47.830;-3.870;2022-07-24T13:53:12;2.17;;;0.90;;
15915;SDS011;8057;47.830;-3.870;2022-07-24T13:57:21;4.63;;;0.93;;
15915;SDS011;8057;47.830;-3.870;2022-07-24T14:01:30;1.77;;;1.27;;
15915;SDS011;8057;47.830;-3.870;2022-07-24T14:05:44;1.60;;;0.70;;
15915;SDS011;8057;47.830;-3.870;2022-07-24T14:09:54;1.03;;;1.00;;
15915;SDS011;8057;47.830;-3.870;2022-07-24T14:14:03;1.00;;;0.90;;
15915;SDS011;8057;47.830;-3.870;2022-07-24T14:18:13;1.77;;;0.80;;
15915;SDS011;8057;47.830;-3.870;2022-07-24T14:22:22;0.90;;;0.70;;
15915;SDS011;8057;47.830;-3.870;2022-07-24T14:26:32;1.27;;;0.67;;
15915;SDS011;8057;47.830;-3.870;2022-07-24T14:30:41;1.80;;;0.90;;
15915;SDS011;8057;47.830;-3.870;2022-07-24T14:34:51;1.27;;;0.87;;
15915;SDS011;8057;47.830;-3.870;2022-07-24T14:39:00;1.73;;;1.27;;
15915;SDS011;8057;47.830;-3.870;2022-07-24T14:43:10;1.27;;;0.70;;
15915;SDS011;8057;47.830;-3.870;2022-07-24T14:47:19;1.67;;;1.40;;
15915;SDS011;8057;47.830;-3.870;2022-07-24T14:51:28;2.50;;;1.03;;
15915;SDS011;8057;47.830;-3.870;2022-07-24T14:55:37;1.80;;;0.90;;
15915;SDS011;8057;47.830;-3.870;2022-07-24T14:59:47;2.90;;;1.10;;
15915;SDS011;8057;47.830;-3.870;2022-07-24T15:03:55;1.77;;;1.17;;
15915;SDS011;8057;47.830;-3.870;2022-07-24T15:08:04;1.83;;;1.20;;
15915;SDS011;8057;47.830;-3.870;2022-07-24T15:12:13;1.53;;;1.00;;
15915;SDS011;8057;47.830;-3.870;2022-07-24T15:16:24;1.30;;;1.20;;
15915;SDS011;8057;47.830;-3.870;2022-07-24T15:20:32;1.63;;;1.07;;
15915;SDS011;8057;47.830;-3.870;2022-07-24T15:24:41;1.40;;;1.03;;
15915;SDS011;8057;47.830;-3.870;2022-07-24T15:28:50;2.33;;;1.10;;
15915;SDS011;8057;47.830;-3.870;2022-07-24T15:33:00;1.47;;;1.20;;
15915;SDS011;8057;47.830;-3.870;2022-07-24T15:37:12;3.03;;;1.30;;
15915;SDS011;8057;47.830;-3.870;2022-07-24T15:41:20;2.23;;;1.00;;
15915;SDS011;8057;47.830;-3.870;2022-07-24T15:45:29;2.30;;;1.20;;
15915;SDS011;8057;47.830;-3.870;2022-07-24T15:49:40;1.90;;;1.20;;
15915;SDS011;8057;47.830;-3.870;2022-07-24T15:53:49;2.57;;;1.30;;
15915;SDS011;8057;47.830;-3.870;2022-07-24T15:57:57;1.90;;;1.20;;
15915;SDS011;8057;47.830;-3.870;2022-07-24T16:02:06;2.30;;;1.30;;
15915;SDS011;8057;47.830;-3.870;2022-07-24T16:06:16;1.57;;;1.23;;
15915;SDS011;8057;47.830;-3.870;2022-07-24T16:10:26;1.63;;;1.10;;
15915;SDS011;8057;47.830;-3.870;2022-07-24T16:14:34;1.67;;;1.53;;
15915;SDS011;8057;47.830;-3.870;2022-07-24T16:18:43;2.90;;;1.27;;
15915;SDS011;8057;47.830;-3.870;2022-07-24T16:22:54;2.37;;;1.10;;
15915;SDS011;8057;47.830;-3.870;2022-07-24T16:27:03;1.37;;;1.00;;
15915;SDS011;8057;47.830;-3.870;2022-07-24T16:31:12;0.90;;;0.90;;
15915;SDS011;8057;47.830;-3.870;2022-07-24T16:35:21;1.83;;;1.13;;
15915;SDS011;8057;47.830;-3.870;2022-07-24T16:39:31;2.47;;;1.30;;
15915;SDS011;8057;47.830;-3.870;2022-07-24T16:43:48;3.60;;;1.27;;
15915;SDS011;8057;47.830;-3.870;2022-07-24T16:47:57;2.27;;;1.20;;
15915;SDS011;8057;47.830;-3.870;2022-07-24T16:52:06;1.33;;;1.10;;
15915;SDS011;8057;47.830;-3.870;2022-07-24T16:56:19;2.50;;;1.20;;
15915;SDS011;8057;47.830;-3.870;2022-07-24T17:00:29;1.23;;;1.07;;
15915;SDS011;8057;47.830;-3.870;2022-07-24T17:04:38;1.53;;;1.30;;
15915;SDS011;8057;47.830;-3.870;2022-07-24T17:08:46;2.40;;;1.10;;
15915;SDS011;8057;47.830;-3.870;2022-07-24T17:12:57;1.27;;;1.03;;
15915;SDS011;8057;47.830;-3.870;2022-07-24T17:17:05;1.53;;;1.10;;
15915;SDS011;8057;47.830;-3.870;2022-07-24T17:21:14;1.23;;;1.00;;
15915;SDS011;8057;47.830;-3.870;2022-07-24T17:25:26;1.40;;;1.30;;
15915;SDS011;8057;47.830;-3.870;2022-07-24T17:29:37;2.83;;;1.20;;
15915;SDS011;8057;47.830;-3.870;2022-07-24T17:33:46;2.40;;;1.10;;
15915;SDS011;8057;47.830;-3.870;2022-07-24T17:37:55;3.37;;;1.30;;
15915;SDS011;8057;47.830;-3.870;2022-07-24T17:42:04;1.67;;;1.00;;
15915;SDS011;8057;47.830;-3.870;2022-07-24T17:46:14;1.30;;;1.20;;
15915;SDS011;8057;47.830;-3.870;2022-07-24T17:50:24;3.73;;;1.30;;
15915;SDS011;8057;47.830;-3.870;2022-07-24T17:54:32;3.13;;;1.27;;
15915;SDS011;8057;47.830;-3.870;2022-07-24T17:58:41;3.07;;;1.40;;
15915;SDS011;8057;47.830;-3.870;2022-07-24T18:02:51;2.90;;;1.17;;
15915;SDS011;8057;47.830;-3.870;2022-07-24T18:07:00;2.67;;;1.20;;
15915;SDS011;8057;47.830;-3.870;2022-07-24T18:11:10;1.83;;;1.20;;
15915;SDS011;8057;47.830;-3.870;2022-07-24T18:15:19;1.77;;;1.30;;
15915;SDS011;8057;47.830;-3.870;2022-07-24T18:19:30;3.17;;;1.30;;
15915;SDS011;8057;47.830;-3.870;2022-07-24T18:23:39;2.23;;;1.63;;
15915;SDS011;8057;47.830;-3.870;2022-07-24T18:27:48;1.80;;;1.40;;
15915;SDS011;8057;47.830;-3.870;2022-07-24T18:31:56;3.67;;;1.50;;
15915;SDS011;8057;47.830;-3.870;2022-07-24T18:36:07;3.33;;;1.30;;
15915;SDS011;8057;47.830;-3.870;2022-07-24T18:40:16;3.03;;;1.37;;
15915;SDS011;8057;47.830;-3.870;2022-07-24T18:44:25;2.23;;;1.23;;
15915;SDS011;8057;47.830;-3.870;2022-07-24T18:48:34;4.63;;;1.70;;
15915;SDS011;8057;47.830;-3.870;2022-07-24T18:52:47;1.40;;;1.30;;
15915;SDS011;8057;47.830;-3.870;2022-07-24T18:56:56;2.43;;;1.70;;
15915;SDS011;8057;47.830;-3.870;2022-07-24T19:01:05;2.47;;;1.30;;
15915;SDS011;8057;47.830;-3.870;2022-07-24T19:05:14;2.20;;;1.33;;
15915;SDS011;8057;47.830;-3.870;2022-07-24T19:09:24;1.93;;;1.70;;
15915;SDS011;8057;47.830;-3.870;2022-07-24T19:13:35;2.00;;;1.40;;
15915;SDS011;8057;47.830;-3.870;2022-07-24T19:17:44;1.47;;;1.30;;
15915;SDS011;8057;47.830;-3.870;2022-07-24T19:21:52;2.00;;;1.30;;
15915;SDS011;8057;47.830;-3.870;2022-07-24T19:26:03;2.63;;;1.40;;
15915;SDS011;8057;47.830;-3.870;2022-07-24T19:30:12;3.77;;;2.07;;
15915;SDS011;8057;47.830;-3.870;2022-07-24T19:34:21;2.33;;;1.67;;
15915;SDS011;8057;47.830;-3.870;2022-07-24T19:38:30;2.53;;;1.60;;
15915;SDS011;8057;47.830;-3.870;2022-07-24T19:42:40;4.03;;;1.63;;
15915;SDS011;8057;47.830;-3.870;2022-07-24T19:46:49;3.70;;;1.73;;
15915;SDS011;8057;47.830;-3.870;2022-07-24T19:50:58;3.37;;;2.00;;
15915;SDS011;8057;47.830;-3.870;2022-07-24T19:55:27;3.03;;;1.70;;
15915;SDS011;8057;47.830;-3.870;2022-07-24T19:59:37;3.17;;;1.87;;
15915;SDS011;8057;47.830;-3.870;2022-07-24T20:03:50;5.33;;;2.07;;
15915;SDS011;8057;47.830;-3.870;2022-07-24T20:07:59;2.80;;;2.00;;
15915;SDS011;8057;47.830;-3.870;2022-07-24T20:12:09;3.37;;;2.10;;
15915;SDS011;8057;47.830;-3.870;2022-07-24T20:16:19;2.27;;;1.50;;
15915;SDS011;8057;47.830;-3.870;2022-07-24T20:20:28;5.20;;;1.77;;
15915;SDS011;8057;47.830;-3.870;2022-07-24T20:24:37;4.17;;;1.70;;
15915;SDS011;8057;47.830;-3.870;2022-07-24T20:28:46;2.80;;;1.60;;
15915;SDS011;8057;47.830;-3.870;2022-07-24T20:32:56;3.47;;;1.70;;
15915;SDS011;8057;47.830;-3.870;2022-07-24T20:37:05;3.83;;;1.60;;
15915;SDS011;8057;47.830;-3.870;2022-07-24T20:41:13;4.67;;;2.20;;
15915;SDS011;8057;47.830;-3.870;2022-07-24T20:45:22;4.23;;;2.03;;
15915;SDS011;8057;47.830;-3.870;2022-07-24T20:49:32;3.67;;;2.10;;
15915;SDS011;8057;47.830;-3.870;2022-07-24T20:53:41;2.83;;;1.70;;
15915;SDS011;8057;47.830;-3.870;2022-07-24T20:57:53;4.27;;;2.03;;
15915;SDS011;8057;47.830;-3.870;2022-07-24T21:02:01;3.33;;;1.90;;
15915;SDS011;8057;47.830;-3.870;2022-07-24T21:06:12;5.23;;;2.07;;
15915;SDS011;8057;47.830;-3.870;2022-07-24T21:10:21;5.20;;;2.30;;
15915;SDS011;8057;47.830;-3.870;2022-07-24T21:14:30;6.13;;;2.50;;
15915;SDS011;8057;47.830;-3.870;2022-07-24T21:18:38;4.47;;;2.30;;
15915;SDS011;8057;47.830;-3.870;2022-07-24T21:22:49;5.60;;;2.43;;
15915;SDS011;8057;47.830;-3.870;2022-07-24T21:26:57;4.60;;;2.13;;
15915;SDS011;8057;47.830;-3.870;2022-07-24T21:31:06;4.73;;;2.43;;
15915;SDS011;8057;47.830;-3.870;2022-07-24T21:35:15;3.33;;;2.20;;
15915;SDS011;8057;47.830;-3.870;2022-07-24T21:39:25;6.03;;;2.80;;
15915;SDS011;8057;47.830;-3.870;2022-07-24T21:43:34;6.13;;;2.70;;
15915;SDS011;8057;47.830;-3.870;2022-07-24T21:47:43;5.93;;;2.80;;
15915;SDS011;8057;47.830;-3.870;2022-07-24T21:51:52;5.23;;;2.80;;
15915;SDS011;8057;47.830;-3.870;2022-07-24T21:56:02;5.67;;;2.83;;
15915;SDS011;8057;47.830;-3.870;2022-07-24T22:00:16;6.53;;;2.73;;
15915;SDS011;8057;47.830;-3.870;2022-07-24T22:04:24;9.30;;;3.23;;
15915;SDS011;8057;47.830;-3.870;2022-07-24T22:08:35;5.87;;;3.03;;
15915;SDS011;8057;47.830;-3.870;2022-07-24T22:12:45;4.80;;;2.80;;
15915;SDS011;8057;47.830;-3.870;2022-07-24T22:16:54;5.27;;;3.10;;
15915;SDS011;8057;47.830;-3.870;2022-07-24T22:21:03;6.13;;;3.33;;
15915;SDS011;8057;47.830;-3.870;2022-07-24T22:25:12;6.37;;;2.90;;
15915;SDS011;8057;47.830;-3.870;2022-07-24T22:29:22;7.13;;;3.13;;
15915;SDS011;8057;47.830;-3.870;2022-07-24T22:33:31;9.33;;;3.90;;
15915;SDS011;8057;47.830;-3.870;2022-07-24T22:37:40;10.03;;;3.60;;
15915;SDS011;8057;47.830;-3.870;2022-07-24T22:41:52;6.13;;;3.27;;
15915;SDS011;8057;47.830;-3.870;2022-07-24T22:46:03;8.67;;;3.50;;
15915;SDS011;8057;47.830;-3.870;2022-07-24T22:50:15;6.97;;;3.33;;
15915;SDS011;8057;47.830;-3.870;2022-07-24T22:54:29;6.23;;;3.13;;
15915;SDS011;8057;47.830;-3.870;2022-07-24T22:58:39;7.33;;;3.80;;
15915;SDS011;8057;47.830;-3.870;2022-07-24T23:02:49;7.80;;;3.57;;
15915;SDS011;8057;47.830;-3.870;2022-07-24T23:06:58;9.00;;;4.00;;
15915;SDS011;8057;47.830;-3.870;2022-07-24T23:11:07;7.13;;;4.03;;
15915;SDS011;8057;47.830;-3.870;2022-07-24T23:15:16;8.70;;;4.87;;
15915;SDS011;8057;47.830;-3.870;2022-07-24T23:19:26;11.80;;;4.03;;
15915;SDS011;8057;47.830;-3.870;2022-07-24T23:23:35;10.00;;;4.07;;
15915;SDS011;8057;47.830;-3.870;2022-07-24T23:27:44;7.80;;;4.37;;
15915;SDS011;8057;47.830;-3.870;2022-07-24T23:31:53;9.90;;;4.63;;
15915;SDS011;8057;47.830;-3.870;2022-07-24T23:36:04;9.90;;;4.20;;
15915;SDS011;8057;47.830;-3.870;2022-07-24T23:40:13;9.67;;;4.80;;
15915;SDS011;8057;47.830;-3.870;2022-07-24T23:44:22;8.60;;;4.30;;
15915;SDS011;8057;47.830;-3.870;2022-07-24T23:48:31;8.53;;;3.80;;
15915;SDS011;8057;47.830;-3.870;2022-07-24T23:52:42;10.40;;;4.00;;
15915;SDS011;8057;47.830;-3.870;2022-07-24T23:56:51;9.73;;;4.50;;
